Time;durP1;ratioP1;P1;durP2;ratioP2;P2;SDS_P1;SDS_P2;PMS_P1;PMS_P2;Temp;Humidity;BMP_temperature;BMP_pressure;BME280_temperature;BME280_humidity;BME280_pressure;Samples;Min_cycle;Max_cycle;Signal;HPM_P1;HPM_P2
2021/12/20 00:01:58;;;;;;;22.47;16.90;;;8.10;99.90;;;;;;5114261;28;20215;-77
2021/12/20 00:04:25;;;;;;;25.63;17.00;;;8.20;99.90;;;;;;5114234;28;20207;-77
2021/12/20 00:06:53;;;;;;;30.53;18.63;;;8.00;99.90;;;;;;5114418;28;20196;-80
2021/12/20 00:09:20;;;;;;;23.07;18.37;;;8.20;99.90;;;;;;5113516;28;20215;-77
2021/12/20 00:11:46;;;;;;;22.87;17.10;;;8.30;99.90;;;;;;5113655;28;20204;-77
2021/12/20 00:14:13;;;;;;;23.30;17.30;;;8.20;99.90;;;;;;5114192;28;20193;-78
2021/12/20 00:16:40;;;;;;;21.10;16.37;;;8.10;99.90;;;;;;5113666;28;20232;-76
2021/12/20 00:19:09;;;;;;;27.23;17.53;;;8.10;99.90;;;;;;5113690;28;20204;-77
2021/12/20 00:21:36;;;;;;;28.43;18.47;;;8.10;99.90;;;;;;5114056;28;20216;-78
2021/12/20 00:24:06;;;;;;;24.67;16.60;;;8.00;99.90;;;;;;5113752;28;20189;-78
2021/12/20 00:26:33;;;;;;;27.83;17.47;;;8.00;99.90;;;;;;5113977;28;20203;-76
2021/12/20 00:29:00;;;;;;;26.33;17.13;;;7.90;99.90;;;;;;5113859;28;20215;-76
2021/12/20 00:31:27;;;;;;;31.33;18.67;;;7.80;99.90;;;;;;5113555;28;20223;-76
2021/12/20 00:33:54;;;;;;;26.63;18.50;;;8.10;99.90;;;;;;5113788;28;20209;-76
2021/12/20 00:36:22;;;;;;;26.70;17.37;;;8.00;99.90;;;;;;5113400;28;20216;-78
2021/12/20 00:41:35;;;;;;;22.33;16.90;;;8.10;99.90;;;;;;5113938;28;20203;-77
2021/12/20 00:44:03;;;;;;;28.53;16.07;;;8.10;99.90;;;;;;5114026;28;20192;-78
2021/12/20 00:46:30;;;;;;;24.33;16.70;;;8.00;99.90;;;;;;5113398;28;20208;-78
2021/12/20 00:48:56;;;;;;;23.23;15.90;;;7.90;99.90;;;;;;5113120;28;20562;-76
2021/12/20 00:51:23;;;;;;;20.57;14.87;;;7.90;99.90;;;;;;5113159;28;20198;-77
2021/12/20 00:53:50;;;;;;;25.93;16.00;;;7.90;99.90;;;;;;5113268;28;20201;-79
2021/12/20 00:56:17;;;;;;;23.90;17.47;;;7.80;99.90;;;;;;5112754;28;20690;-77
2021/12/20 00:58:45;;;;;;;24.20;19.23;;;7.90;99.90;;;;;;5112715;28;20903;-77
2021/12/20 01:01:12;;;;;;;29.97;17.73;;;7.90;99.90;;;;;;5112728;28;20212;-76
2021/12/20 01:03:40;;;;;;;23.20;16.87;;;7.90;99.90;;;;;;5113396;28;20302;-78
2021/12/20 01:06:07;;;;;;;25.00;15.73;;;7.80;99.90;;;;;;5112855;28;20200;-77
2021/12/20 01:08:37;;;;;;;26.13;15.70;;;7.80;99.90;;;;;;5112840;28;20188;-77
2021/12/20 01:11:05;;;;;;;19.67;14.47;;;8.00;99.90;;;;;;5113110;28;20243;-76
2021/12/20 01:13:39;;;;;;;22.80;15.33;;;7.70;99.90;;;;;;5113070;28;20204;-77
2021/12/20 01:16:11;;;;;;;27.60;14.67;;;7.70;99.90;;;;;;5113096;28;20236;-76
2021/12/20 01:18:38;;;;;;;26.27;15.43;;;7.80;99.90;;;;;;5113278;28;20234;-76
2021/12/20 01:21:05;;;;;;;30.67;15.63;;;7.80;99.90;;;;;;5112828;28;20207;-76
2021/12/20 01:23:33;;;;;;;31.57;14.47;;;7.90;99.90;;;;;;5112616;28;20208;-77
2021/12/20 01:26:01;;;;;;;21.97;14.37;;;7.90;99.90;;;;;;5112729;28;20211;-79
2021/12/20 01:28:28;;;;;;;25.83;15.67;;;8.00;99.90;;;;;;5112486;28;20220;-76
2021/12/20 01:30:55;;;;;;;22.53;15.40;;;8.00;99.90;;;;;;5112950;28;20208;-78
2021/12/20 01:33:25;;;;;;;23.67;14.30;;;7.90;99.90;;;;;;5112939;28;20578;-76
2021/12/20 01:35:52;;;;;;;33.60;14.60;;;7.80;99.90;;;;;;5113039;28;20216;-83
2021/12/20 01:38:19;;;;;;;23.67;13.50;;;7.70;99.90;;;;;;5112628;28;20228;-80
2021/12/20 01:40:47;;;;;;;26.97;15.07;;;7.60;99.90;;;;;;5112821;28;20204;-78
2021/12/20 01:43:16;;;;;;;28.13;16.90;;;7.50;99.90;;;;;;5112869;28;20204;-81
2021/12/20 01:45:43;;;;;;;25.67;15.80;;;7.60;99.90;;;;;;5113082;28;20645;-83
2021/12/20 01:48:13;;;;;;;23.50;15.97;;;7.50;99.90;;;;;;5112876;28;20333;-83
2021/12/20 01:53:35;;;;;;;25.27;14.77;;;7.80;99.90;;;;;;5107119;28;20246;-80
2021/12/20 01:56:05;;;;;;;25.37;14.17;;;7.80;99.90;;;;;;5112825;28;20193;-80
2021/12/20 01:58:32;;;;;;;29.70;15.30;;;7.80;99.90;;;;;;5113503;28;20227;-82
2021/12/20 02:04:02;;;;;;;21.90;14.33;;;7.80;99.90;;;;;;5049856;28;20274;-76
2021/12/20 02:06:34;;;;;;;28.43;14.77;;;7.90;99.90;;;;;;5049881;28;20629;-83
2021/12/20 02:09:05;;;;;;;23.93;14.70;;;7.80;99.90;;;;;;5079811;28;20219;-80
2021/12/20 02:11:35;;;;;;;26.17;18.02;;;7.80;99.90;;;;;;5112059;28;20888;-80
2021/12/20 02:14:02;;;;;;;26.23;15.17;;;8.00;99.90;;;;;;5112850;28;20193;-77
2021/12/20 02:16:29;;;;;;;24.67;15.00;;;8.10;99.90;;;;;;5112609;28;20207;-79
2021/12/20 02:18:56;;;;;;;27.73;14.07;;;8.20;99.90;;;;;;5112463;28;20584;-78
2021/12/20 02:21:24;;;;;;;24.20;13.67;;;8.00;99.90;;;;;;5112348;28;20539;-76
2021/12/20 02:23:51;;;;;;;24.30;13.93;;;7.80;99.90;;;;;;5112284;28;20211;-76
2021/12/20 02:26:19;;;;;;;33.03;14.50;;;7.70;99.90;;;;;;5112392;28;20200;-79
2021/12/20 02:28:50;;;;;;;26.77;14.40;;;7.70;99.90;;;;;;5112582;28;20574;-84
2021/12/20 02:37:14;;;;;;;24.97;14.70;;;7.70;99.90;;;;;;5116350;28;20216;-81
2021/12/20 02:39:41;;;;;;;27.67;15.03;;;7.70;99.90;;;;;;5116431;28;20524;-81
2021/12/20 02:42:10;;;;;;;25.57;15.20;;;7.70;99.90;;;;;;5116461;28;20545;-81
2021/12/20 02:44:37;;;;;;;28.90;15.57;;;7.70;99.90;;;;;;5116239;28;20500;-78
2021/12/20 02:47:14;;;;;;;19.73;14.57;;;7.80;99.90;;;;;;5116294;28;20254;-82
2021/12/20 02:49:41;;;;;;;26.25;19.58;;;8.00;99.90;;;;;;5114964;28;20421;-78
2021/12/20 02:52:10;;;;;;;25.83;17.10;;;8.20;99.90;;;;;;5116365;28;20212;-80
2021/12/20 02:54:37;;;;;;;28.30;15.63;;;8.30;99.90;;;;;;5115950;28;20200;-80
2021/12/20 02:57:05;;;;;;;25.53;16.43;;;8.30;99.90;;;;;;5116090;28;20221;-79
2021/12/20 02:59:33;;;;;;;26.53;16.57;;;8.00;99.90;;;;;;5115759;28;20199;-81
2021/12/20 03:02:05;;;;;;;26.07;15.80;;;8.00;99.90;;;;;;5115925;28;20214;-80
2021/12/20 03:04:33;;;;;;;27.03;15.97;;;8.00;99.90;;;;;;5115701;28;20678;-79
2021/12/20 03:07:05;;;;;;;23.57;15.20;;;8.10;99.90;;;;;;5116109;28;20209;-78
2021/12/20 03:09:37;;;;;;;21.17;15.30;;;8.00;99.90;;;;;;5115530;28;20273;-79
2021/12/20 03:12:06;;;;;;;26.33;16.17;;;8.00;99.90;;;;;;5115900;28;20261;-82
2021/12/20 03:14:36;;;;;;;29.40;16.77;;;7.90;99.90;;;;;;5115800;28;20201;-77
2021/12/20 03:17:05;;;;;;;26.30;17.50;;;7.90;99.90;;;;;;5115127;28;20567;-78
2021/12/20 03:19:32;;;;;;;26.10;16.43;;;7.90;99.90;;;;;;5114879;28;20185;-80
2021/12/20 03:21:59;;;;;;;27.33;17.53;;;8.00;99.90;;;;;;5115436;28;20296;-82
2021/12/20 03:24:26;;;;;;;23.17;16.53;;;8.00;99.90;;;;;;5115224;28;20663;-82
2021/12/20 03:26:56;;;;;;;24.63;15.83;;;8.10;99.90;;;;;;5115095;28;20572;-78
2021/12/20 03:29:22;;;;;;;23.60;15.83;;;8.00;99.90;;;;;;5115303;28;20196;-79
2021/12/20 03:31:49;;;;;;;21.77;16.70;;;7.90;99.90;;;;;;5115081;28;20200;-79
2021/12/20 03:34:17;;;;;;;24.53;16.80;;;8.00;99.90;;;;;;5114951;28;20205;-79
2021/12/20 03:36:44;;;;;;;21.83;16.17;;;7.90;99.90;;;;;;5115202;28;20189;-80
2021/12/20 03:39:11;;;;;;;27.73;16.90;;;7.90;99.90;;;;;;5114969;28;20228;-81
2021/12/20 03:41:39;;;;;;;22.87;16.47;;;7.80;99.90;;;;;;5114759;28;20208;-78
2021/12/20 03:44:08;;;;;;;30.67;17.27;;;7.80;99.90;;;;;;5114998;28;20189;-78
2021/12/20 03:46:37;;;;;;;25.87;16.90;;;7.80;99.90;;;;;;5114983;28;20205;-76
2021/12/20 03:49:04;;;;;;;27.67;16.77;;;7.80;99.90;;;;;;5114365;28;20228;-81
2021/12/20 03:51:31;;;;;;;29.40;18.20;;;7.80;99.90;;;;;;5114734;28;20518;-81
2021/12/20 03:53:58;;;;;;;31.57;20.40;;;7.70;99.90;;;;;;5114841;28;20200;-79
2021/12/20 03:56:26;;;;;;;29.47;19.67;;;7.80;99.90;;;;;;5114432;28;20561;-76
2021/12/20 03:58:54;;;;;;;36.33;21.43;;;7.70;99.90;;;;;;5114449;28;20224;-81
2021/12/20 04:01:22;;;;;;;28.92;23.55;;;7.80;99.90;;;;;;5113574;28;20432;-76
2021/12/20 04:03:50;;;;;;;29.50;19.33;;;7.90;99.90;;;;;;5114496;28;20211;-78
2021/12/20 04:06:17;;;;;;;23.97;16.33;;;7.90;99.90;;;;;;5114478;28;20611;-77
2021/12/20 04:08:46;;;;;;;27.00;16.90;;;7.80;99.90;;;;;;5114777;28;20194;-80
2021/12/20 04:11:13;;;;;;;28.43;16.93;;;7.60;99.90;;;;;;5114260;28;20249;-78
2021/12/20 04:13:39;;;;;;;30.47;19.03;;;7.50;99.90;;;;;;5114350;28;20749;-76
2021/12/20 04:16:06;;;;;;;24.90;17.03;;;7.60;99.90;;;;;;5113939;28;20195;-76
2021/12/20 04:18:35;;;;;;;23.33;16.23;;;7.60;99.90;;;;;;5113813;28;20224;-79
2021/12/20 04:21:02;;;;;;;28.47;16.23;;;7.80;99.90;;;;;;5113951;28;20302;-78
2021/12/20 04:23:29;;;;;;;23.07;15.73;;;7.60;99.90;;;;;;5113806;28;20200;-79
2021/12/20 04:25:56;;;;;;;27.70;16.97;;;7.50;99.90;;;;;;5113811;28;20643;-78
2021/12/20 04:28:23;;;;;;;28.67;16.67;;;7.50;99.90;;;;;;5114090;28;20216;-77
2021/12/20 04:30:50;;;;;;;34.10;16.67;;;7.60;99.90;;;;;;5099867;28;20672;-77
2021/12/20 04:33:17;;;;;;;29.00;16.63;;;7.70;99.90;;;;;;5092006;28;20192;-76
2021/12/20 04:35:47;;;;;;;28.73;16.83;;;7.60;99.90;;;;;;5092179;28;20208;-79
2021/12/20 04:38:14;;;;;;;27.80;16.60;;;7.70;99.90;;;;;;5093559;28;20221;-78
2021/12/20 04:40:41;;;;;;;24.87;16.27;;;7.80;99.90;;;;;;5093346;28;20535;-76
2021/12/20 04:43:08;;;;;;;25.20;15.60;;;7.90;99.90;;;;;;5093164;28;20208;-78
2021/12/20 04:45:36;;;;;;;24.67;15.53;;;8.00;99.90;;;;;;5092224;28;20565;-81
2021/12/20 04:48:04;;;;;;;26.07;15.23;;;7.90;99.90;;;;;;5093011;28;20205;-80
2021/12/20 04:50:31;;;;;;;26.00;15.60;;;8.10;99.90;;;;;;5092886;28;20692;-77
2021/12/20 04:52:59;;;;;;;21.97;14.27;;;8.00;99.90;;;;;;5092789;28;20205;-77
2021/12/20 04:55:28;;;;;;;22.03;15.73;;;8.00;99.90;;;;;;5093102;28;20223;-77
2021/12/20 04:57:57;;;;;;;23.10;13.83;;;8.20;99.90;;;;;;5092387;28;20224;-78
2021/12/20 05:00:25;;;;;;;22.27;12.97;;;8.20;99.90;;;;;;5092529;28;20220;-76
2021/12/20 05:02:52;;;;;;;15.67;11.87;;;8.20;99.90;;;;;;5092642;28;20208;-78
2021/12/20 05:05:20;;;;;;;19.03;12.33;;;8.40;99.90;;;;;;5092708;28;20679;-77
2021/12/20 05:07:48;;;;;;;17.30;12.43;;;8.40;99.90;;;;;;5092658;28;20205;-79
2021/12/20 05:10:26;;;;;;;17.03;11.97;;;8.40;99.90;;;;;;5092364;28;20766;-79
2021/12/20 05:12:55;;;;;;;17.43;12.97;;;8.50;99.90;;;;;;5092601;28;20197;-75
2021/12/20 05:15:22;;;;;;;18.33;12.30;;;8.50;99.90;;;;;;5092325;28;20205;-76
2021/12/20 05:17:49;;;;;;;19.50;11.07;;;8.50;99.90;;;;;;5092587;28;20250;-76
2021/12/20 05:20:16;;;;;;;18.90;12.33;;;8.50;99.90;;;;;;5092300;28;20660;-77
2021/12/20 05:22:43;;;;;;;21.50;11.43;;;8.40;99.90;;;;;;5092472;28;20205;-77
2021/12/20 05:25:10;;;;;;;21.27;11.17;;;8.10;99.90;;;;;;5092715;28;20208;-76
2021/12/20 05:27:39;;;;;;;21.63;10.90;;;7.80;99.90;;;;;;5092531;28;20211;-76
2021/12/20 05:30:09;;;;;;;17.03;9.50;;;7.80;99.90;;;;;;5092201;28;20666;-76
2021/12/20 05:32:36;;;;;;;20.43;9.67;;;7.80;99.90;;;;;;5092646;28;20532;-78
2021/12/20 05:35:05;;;;;;;14.50;8.80;;;8.00;99.90;;;;;;5092636;28;20221;-79
2021/12/20 05:37:32;;;;;;;12.57;8.40;;;8.10;99.90;;;;;;5092426;28;20670;-76
2021/12/20 05:39:58;;;;;;;15.83;7.77;;;8.30;99.90;;;;;;5092135;28;20561;-77
2021/12/20 05:42:25;;;;;;;14.77;6.97;;;8.30;99.90;;;;;;5092209;28;20295;-76
2021/12/20 05:44:54;;;;;;;17.10;6.87;;;8.20;99.90;;;;;;5092075;28;20627;-76
2021/12/20 05:47:23;;;;;;;15.67;5.70;;;8.20;99.90;;;;;;5092113;28;20198;-76
2021/12/20 05:49:50;;;;;;;11.07;5.20;;;8.30;99.90;;;;;;5092302;28;20265;-76
2021/12/20 05:52:17;;;;;;;10.67;5.17;;;8.20;99.90;;;;;;5092139;28;20656;-78
2021/12/20 05:54:44;;;;;;;12.67;5.53;;;8.30;99.90;;;;;;5092314;28;20200;-77
2021/12/20 05:57:11;;;;;;;9.20;4.60;;;8.10;99.90;;;;;;5092212;28;20197;-77
2021/12/20 05:59:38;;;;;;;10.40;3.87;;;8.10;99.90;;;;;;5091933;28;20234;-76
2021/12/20 06:02:06;;;;;;;13.60;3.97;;;8.10;99.90;;;;;;5091389;28;20216;-76
2021/12/20 06:04:33;;;;;;;13.67;4.10;;;8.10;99.90;;;;;;5092091;28;20201;-76
2021/12/20 06:07:00;;;;;;;18.97;4.40;;;8.30;99.90;;;;;;5092529;28;20205;-76
2021/12/20 06:09:28;;;;;;;11.70;3.27;;;8.20;99.90;;;;;;5096026;28;20201;-77
2021/12/20 06:11:59;;;;;;;15.53;3.87;;;8.10;99.90;;;;;;5095832;28;20644;-76
2021/12/20 06:14:26;;;;;;;16.43;3.40;;;8.20;99.90;;;;;;5096215;28;20208;-77
2021/12/20 06:16:55;;;;;;;17.83;3.73;;;8.10;99.90;;;;;;5096114;28;20205;-79
2021/12/20 06:19:24;;;;;;;21.20;4.13;;;7.80;99.90;;;;;;5095790;28;20237;-78
2021/12/20 06:21:51;;;;;;;23.17;4.33;;;7.90;99.90;;;;;;5096108;28;20231;-79
2021/12/20 06:24:18;;;;;;;14.80;3.80;;;7.70;99.90;;;;;;5096018;28;20193;-83
2021/12/20 06:26:46;;;;;;;20.73;3.67;;;7.80;99.90;;;;;;5095811;28;20209;-78
2021/12/20 06:29:12;;;;;;;15.63;3.40;;;7.90;99.90;;;;;;5095431;28;20682;-77
2021/12/20 06:31:40;;;;;;;13.17;3.50;;;7.70;99.90;;;;;;5095877;28;20201;-78
2021/12/20 06:34:06;;;;;;;15.40;3.10;;;7.90;99.90;;;;;;5095736;28;20186;-78
2021/12/20 06:36:34;;;;;;;22.23;3.20;;;7.70;99.90;;;;;;5095694;28;20209;-76
2021/12/20 06:39:01;;;;;;;14.17;3.20;;;7.80;99.90;;;;;;5095447;28;20251;-78
2021/12/20 06:41:28;;;;;;;18.13;3.27;;;7.70;99.90;;;;;;5095294;28;20201;-76
2021/12/20 06:43:56;;;;;;;19.50;3.60;;;7.60;99.90;;;;;;5095573;28;20204;-77
2021/12/20 06:46:25;;;;;;;13.20;3.30;;;7.80;99.90;;;;;;5095433;28;20258;-76
2021/12/20 06:48:52;;;;;;;16.67;3.60;;;7.90;99.90;;;;;;5094687;28;20236;-80
2021/12/20 06:51:19;;;;;;;12.80;3.10;;;7.90;99.90;;;;;;5104654;28;20226;-76
2021/12/20 06:53:47;;;;;;;15.77;3.87;;;7.70;99.90;;;;;;5115508;28;20539;-78
2021/12/20 06:56:14;;;;;;;18.47;3.70;;;7.80;99.90;;;;;;5115240;28;20200;-77
2021/12/20 06:58:40;;;;;;;19.27;3.27;;;7.60;99.90;;;;;;5115233;28;20599;-76
2021/12/20 07:01:07;;;;;;;20.43;3.53;;;7.40;99.90;;;;;;5115455;28;20185;-76
2021/12/20 07:03:34;;;;;;;17.70;3.47;;;7.60;99.90;;;;;;5115837;28;20196;-77
2021/12/20 07:06:01;;;;;;;20.17;4.73;;;7.50;99.90;;;;;;5114911;28;20429;-76
2021/12/20 07:08:28;;;;;;;18.03;4.03;;;7.60;99.90;;;;;;5115266;28;20215;-79
2021/12/20 07:10:57;;;;;;;19.20;3.57;;;7.40;99.90;;;;;;5114893;28;20570;-80
2021/12/20 07:13:24;;;;;;;23.30;3.77;;;7.60;99.90;;;;;;5115265;28;20659;-77
2021/12/20 07:15:50;;;;;;;17.30;3.67;;;7.70;99.90;;;;;;5115395;28;20196;-85
2021/12/20 07:18:17;;;;;;;19.03;3.20;;;7.90;99.90;;;;;;5116331;28;20225;-83
2021/12/20 07:20:45;;;;;;;20.00;3.70;;;7.90;99.90;;;;;;5115097;28;20567;-86
2021/12/20 07:23:12;;;;;;;22.43;4.90;;;7.90;99.90;;;;;;5115779;28;20200;-83
2021/12/20 07:25:44;;;;;;;19.90;3.93;;;7.90;99.90;;;;;;5115360;28;20559;-85
2021/12/20 07:28:15;;;;;;;20.90;4.33;;;8.00;99.90;;;;;;5116017;28;20200;-85
2021/12/20 07:30:45;;;;;;;19.17;3.70;;;8.00;99.90;;;;;;5115029;28;20216;-84
2021/12/20 07:33:11;;;;;;;20.40;4.93;;;8.00;99.90;;;;;;5114957;28;20211;-85
2021/12/20 07:35:41;;;;;;;25.67;5.10;;;7.60;99.90;;;;;;5115341;28;20571;-84
2021/12/20 07:38:12;;;;;;;25.03;5.20;;;7.60;99.90;;;;;;5115328;28;20191;-85
2021/12/20 07:40:42;;;;;;;20.43;4.70;;;7.50;99.90;;;;;;5114934;28;20197;-82
2021/12/20 07:43:09;;;;;;;22.27;6.20;;;7.40;99.90;;;;;;5113961;28;20889;-82
2021/12/20 07:45:38;;;;;;;22.63;6.50;;;7.40;99.90;;;;;;5114681;28;20647;-82
2021/12/20 07:48:05;;;;;;;31.77;6.13;;;7.40;99.90;;;;;;5114031;28;20207;-83
2021/12/20 07:50:32;;;;;;;17.10;4.43;;;7.50;99.90;;;;;;5114092;28;20231;-81
2021/12/20 07:52:59;;;;;;;24.90;4.63;;;7.60;99.90;;;;;;5112914;28;20663;-81
2021/12/20 07:55:27;;;;;;;21.67;5.00;;;7.50;99.90;;;;;;5111019;28;20268;-82
2021/12/20 07:57:55;;;;;;;20.37;4.80;;;7.60;99.90;;;;;;5114264;28;20200;-83
2021/12/20 08:00:24;;;;;;;20.17;4.57;;;7.60;99.90;;;;;;5114171;28;20690;-86
2021/12/20 08:02:53;;;;;;;19.47;4.10;;;7.80;99.90;;;;;;5114270;28;20200;-81
2021/12/20 08:05:20;;;;;;;21.27;3.60;;;7.90;99.90;;;;;;5114623;28;20204;-80
2021/12/20 08:07:50;;;;;;;27.53;5.27;;;7.90;99.90;;;;;;5113740;28;20611;-81
2021/12/20 08:10:17;;;;;;;18.13;3.77;;;8.10;99.90;;;;;;5114017;28;20219;-80
2021/12/20 08:12:44;;;;;;;14.37;3.63;;;8.20;99.90;;;;;;5114143;28;20207;-83
2021/12/20 08:15:11;;;;;;;23.47;4.30;;;8.40;99.90;;;;;;5113986;28;20204;-83
2021/12/20 08:17:38;;;;;;;21.13;3.97;;;8.30;99.90;;;;;;5114093;28;20210;-80
2021/12/20 08:20:08;;;;;;;20.17;3.90;;;8.20;99.90;;;;;;5113837;28;20223;-81
2021/12/20 08:22:35;;;;;;;27.17;4.00;;;8.20;99.90;;;;;;5114105;28;20227;-82
2021/12/20 08:25:03;;;;;;;19.90;4.30;;;8.00;99.90;;;;;;5114393;28;20202;-81
2021/12/20 08:27:30;;;;;;;15.70;3.87;;;8.00;99.90;;;;;;5114336;28;20199;-81
2021/12/20 08:29:57;;;;;;;26.03;4.43;;;7.90;99.90;;;;;;5114379;28;20583;-84
2021/12/20 08:32:24;;;;;;;14.60;3.10;;;7.80;99.90;;;;;;5113073;28;20211;-81
2021/12/20 08:34:50;;;;;;;21.80;4.23;;;7.70;99.90;;;;;;5114462;28;20197;-85
2021/12/20 08:37:19;;;;;;;18.90;4.17;;;7.90;99.90;;;;;;5114040;28;20192;-83
2021/12/20 08:39:45;;;;;;;21.93;4.73;;;7.90;99.90;;;;;;5113984;28;20235;-83
2021/12/20 08:42:12;;;;;;;24.77;3.43;;;7.80;99.90;;;;;;5114389;28;20211;-83
2021/12/20 08:44:39;;;;;;;23.43;4.17;;;7.80;99.90;;;;;;5115367;28;20205;-83
2021/12/20 08:47:06;;;;;;;23.10;3.50;;;7.90;99.90;;;;;;5113785;28;20204;-82
2021/12/20 08:49:33;;;;;;;18.70;3.87;;;7.90;99.90;;;;;;5113681;28;20228;-81
2021/12/20 08:52:00;;;;;;;16.60;3.50;;;8.00;99.90;;;;;;5113183;28;20213;-79
2021/12/20 08:54:29;;;;;;;18.57;4.00;;;8.10;99.90;;;;;;5113389;28;20212;-84
2021/12/20 08:56:58;;;;;;;20.40;4.40;;;7.90;99.90;;;;;;5112829;28;20437;-81
2021/12/20 08:59:25;;;;;;;12.63;3.27;;;7.90;99.90;;;;;;5113094;28;20308;-80
2021/12/20 09:01:53;;;;;;;19.40;4.13;;;7.80;99.90;;;;;;5113659;28;20195;-80
2021/12/20 09:04:21;;;;;;;19.43;4.57;;;7.80;99.90;;;;;;5113517;28;20205;-80
2021/12/20 09:06:49;;;;;;;16.57;3.83;;;8.00;99.90;;;;;;5112594;28;20216;-79
2021/12/20 09:09:16;;;;;;;25.10;4.33;;;7.80;99.90;;;;;;5112713;27;20199;-81
2021/12/20 09:11:46;;;;;;;16.43;3.73;;;7.50;99.90;;;;;;5112442;28;20201;-82
2021/12/20 09:14:13;;;;;;;17.83;4.13;;;7.50;99.90;;;;;;5113021;28;20654;-78
2021/12/20 09:16:40;;;;;;;21.07;4.60;;;7.60;99.90;;;;;;5112271;28;20201;-81
2021/12/20 09:19:08;;;;;;;16.43;3.83;;;7.80;99.90;;;;;;5113328;28;20224;-80
2021/12/20 09:21:35;;;;;;;19.47;4.00;;;8.00;99.90;;;;;;5113193;28;20200;-82
2021/12/20 09:24:03;;;;;;;24.53;4.60;;;8.00;99.90;;;;;;5111839;28;20189;-82
2021/12/20 09:26:31;;;;;;;18.03;4.40;;;7.80;99.90;;;;;;5112858;28;20197;-81
2021/12/20 09:29:05;;;;;;;15.40;4.00;;;7.90;99.90;;;;;;5113463;28;20643;-79
2021/12/20 09:31:39;;;;;;;20.97;3.97;;;8.00;99.90;;;;;;5112809;28;20208;-82
2021/12/20 09:34:08;;;;;;;17.17;3.67;;;8.00;99.90;;;;;;5113323;28;20204;-82
2021/12/20 09:36:35;;;;;;;15.67;3.63;;;8.00;99.90;;;;;;5112587;28;20201;-83
2021/12/20 09:39:07;;;;;;;16.20;3.30;;;8.30;99.90;;;;;;5111457;28;20245;-84
2021/12/20 09:44:23;;;;;;;19.27;3.67;;;7.90;99.90;;;;;;5114797;28;20188;-85
2021/12/20 09:46:55;;;;;;;17.43;3.87;;;7.90;99.90;;;;;;5112661;28;20257;-86
2021/12/20 09:49:24;;;;;;;14.50;3.37;;;8.10;99.90;;;;;;5113046;28;20221;-86
2021/12/20 09:51:55;;;;;;;17.80;3.63;;;8.30;99.90;;;;;;5113254;28;20248;-84
2021/12/20 09:54:22;;;;;;;21.50;4.80;;;8.20;99.90;;;;;;5112982;28;20196;-86
2021/12/20 09:56:53;;;;;;;17.33;5.07;;;8.30;99.90;;;;;;5112314;28;20192;-86
2021/12/20 09:59:24;;;;;;;17.67;4.20;;;8.30;99.90;;;;;;5113128;28;20224;-84
2021/12/20 10:01:53;;;;;;;26.77;6.17;;;8.70;99.90;;;;;;5114653;28;20561;-87
2021/12/20 10:04:21;;;;;;;19.87;5.27;;;8.60;99.90;;;;;;5113654;28;20287;-87
2021/12/20 10:06:51;;;;;;;19.83;5.17;;;8.50;99.90;;;;;;5111496;28;20192;-84
2021/12/20 10:09:26;;;;;;;17.67;4.67;;;8.30;99.90;;;;;;5110152;28;20268;-81
2021/12/20 10:12:15;;;;;;;25.08;5.25;;;8.40;99.90;;;;;;5110924;28;20524;-87
2021/12/20 10:14:54;;;;;;;17.13;3.63;;;8.60;99.90;;;;;;5112416;28;20184;-88
2021/12/20 10:17:23;;;;;;;21.10;3.67;;;8.60;99.90;;;;;;5111277;28;20211;-87
2021/12/20 10:19:51;;;;;;;20.43;4.17;;;8.70;99.90;;;;;;5112520;28;20224;-83
2021/12/20 10:22:28;;;;;;;22.93;5.13;;;8.60;99.90;;;;;;5110600;28;20208;-82
2021/12/20 10:24:56;;;;;;;16.63;3.53;;;8.70;99.90;;;;;;5112323;28;20196;-84
2021/12/20 10:27:35;;;;;;;22.33;3.67;;;8.80;99.90;;;;;;5113246;28;20659;-83
2021/12/20 10:30:22;;;;;;;13.77;3.50;;;8.50;99.90;;;;;;5112503;28;20205;-83
2021/12/20 10:32:50;;;;;;;22.23;4.70;;;8.60;99.90;;;;;;5112682;28;20662;-81
2021/12/20 10:35:32;;;;;;;17.83;4.63;;;8.40;99.90;;;;;;5113165;28;20200;-84
2021/12/20 10:38:02;;;;;;;20.23;4.60;;;8.60;99.90;;;;;;5113054;28;20211;-84
2021/12/20 10:40:30;;;;;;;21.90;4.07;;;8.50;99.90;;;;;;5113028;28;20228;-85
2021/12/20 10:42:59;;;;;;;16.63;3.57;;;8.70;99.90;;;;;;5113236;28;20201;-86
2021/12/20 10:45:28;;;;;;;16.40;4.07;;;8.70;99.90;;;;;;5112781;28;20192;-83
2021/12/20 10:48:09;;;;;;;19.73;3.73;;;8.80;99.90;;;;;;5112673;28;20639;-85
2021/12/20 10:50:42;;;;;;;14.97;3.40;;;9.10;99.90;;;;;;5112484;28;20193;-82
2021/12/20 10:53:19;;;;;;;18.87;3.80;;;9.30;99.90;;;;;;5116219;28;20685;-81
2021/12/20 10:55:54;;;;;;;19.10;4.20;;;9.10;99.90;;;;;;5135485;27;20199;-85
2021/12/20 10:58:29;;;;;;;17.57;3.57;;;9.10;99.90;;;;;;5131959;27;20226;-85
2021/12/20 11:01:19;;;;;;;18.43;3.97;;;8.80;99.90;;;;;;5114653;28;20593;-83
2021/12/20 11:04:02;;;;;;;18.90;3.73;;;9.20;99.90;;;;;;5116251;28;20219;-83
2021/12/20 11:06:59;;;;;;;22.37;4.20;;;9.00;99.90;;;;;;5116185;28;20636;-83
2021/12/20 11:09:30;;;;;;;15.53;3.47;;;9.20;99.90;;;;;;5113396;28;20201;-85
2021/12/20 11:12:05;;;;;;;14.40;3.67;;;9.10;99.90;;;;;;5115966;28;20192;-82
2021/12/20 11:14:37;;;;;;;17.43;3.73;;;9.20;99.90;;;;;;5116229;28;20219;-86
2021/12/20 11:17:10;;;;;;;15.67;3.93;;;9.00;99.90;;;;;;5115933;28;20639;-83
2021/12/20 11:19:38;;;;;;;19.23;4.80;;;8.60;99.90;;;;;;5115563;27;20235;-85
2021/12/20 11:22:08;;;;;;;18.80;3.93;;;8.50;99.90;;;;;;5129461;27;20538;-82
2021/12/20 11:24:39;;;;;;;23.02;4.15;;;8.60;99.90;;;;;;5115642;28;20508;-79
2021/12/20 11:27:10;;;;;;;17.37;4.03;;;8.90;99.90;;;;;;5114756;28;20204;-80
2021/12/20 11:29:38;;;;;;;18.10;3.43;;;9.00;99.90;;;;;;5115124;28;20207;-81
2021/12/20 11:32:09;;;;;;;16.43;3.77;;;9.20;99.90;;;;;;5114981;28;20666;-81
2021/12/20 11:34:37;;;;;;;25.90;3.97;;;9.10;99.90;;;;;;5115043;28;20200;-82
2021/12/20 11:37:06;;;;;;;20.80;3.77;;;9.00;99.90;;;;;;5114961;28;20205;-82
2021/12/20 11:39:34;;;;;;;18.50;3.20;;;9.10;99.90;;;;;;5115233;28;20195;-81
2021/12/20 11:42:01;;;;;;;17.73;3.50;;;9.30;99.90;;;;;;5115309;28;20210;-81
2021/12/20 11:44:30;;;;;;;16.40;3.70;;;9.20;99.90;;;;;;5115334;28;20212;-84
2021/12/20 11:47:09;;;;;;;15.03;3.40;;;8.90;99.90;;;;;;5114610;28;20205;-82
2021/12/20 11:49:37;;;;;;;15.10;3.60;;;8.70;99.90;;;;;;5113819;27;20220;-81
2021/12/20 11:52:08;;;;;;;20.33;3.80;;;9.10;99.90;;;;;;5114153;28;20568;-82
2021/12/20 11:54:47;;;;;;;14.30;3.63;;;9.10;99.90;;;;;;5115011;28;20647;-83
2021/12/20 11:57:40;;;;;;;14.70;3.30;;;9.00;99.90;;;;;;5115074;28;20200;-83
2021/12/20 12:00:19;;;;;;;13.87;3.20;;;8.70;99.90;;;;;;5114630;28;20212;-83
2021/12/20 12:02:51;;;;;;;20.77;4.55;;;8.70;99.90;;;;;;5114540;28;20514;-82
2021/12/20 12:05:30;;;;;;;16.50;4.23;;;8.70;99.90;;;;;;5114849;28;20191;-84
2021/12/20 12:08:36;;;;;;;18.53;3.97;;;8.70;99.90;;;;;;5114507;28;20207;-79
2021/12/20 12:11:29;;;;;;;14.30;4.27;;;8.70;99.90;;;;;;5111688;28;20200;-80
2021/12/20 12:14:18;;;;;;;14.67;4.33;;;8.60;99.90;;;;;;5114712;28;20206;-83
2021/12/20 12:16:59;;;;;;;15.63;4.23;;;8.50;99.90;;;;;;5114370;28;20203;-84
2021/12/20 12:19:47;;;;;;;16.20;4.10;;;8.30;99.90;;;;;;5114113;28;20201;-80
2021/12/20 12:22:35;;;;;;;16.70;4.07;;;8.30;99.90;;;;;;5113613;28;20223;-82
2021/12/20 12:25:03;;;;;;;14.23;4.00;;;8.30;99.90;;;;;;5111529;28;20192;-79
2021/12/20 12:27:34;;;;;;;16.87;3.73;;;8.50;99.90;;;;;;5114154;28;20220;-80
2021/12/20 12:30:33;;;;;;;16.90;4.20;;;8.50;99.90;;;;;;5113712;28;20212;-79
2021/12/20 12:33:40;;;;;;;16.47;4.37;;;8.80;99.90;;;;;;5114053;28;20208;-82
2021/12/20 12:36:37;;;;;;;19.07;3.77;;;8.90;99.90;;;;;;5109182;28;20675;-81
2021/12/20 12:39:09;;;;;;;16.60;4.47;;;9.10;99.90;;;;;;5111508;28;20466;-81
2021/12/20 12:41:45;;;;;;;13.10;3.73;;;9.10;99.90;;;;;;5113603;28;20216;-82
2021/12/20 12:44:22;;;;;;;12.93;2.90;;;8.80;99.90;;;;;;5113984;28;20210;-81
2021/12/20 12:47:13;;;;;;;12.30;2.97;;;8.60;99.90;;;;;;5114354;28;20200;-82
2021/12/20 12:49:51;;;;;;;11.67;2.70;;;8.30;99.90;;;;;;5110264;28;20723;-82
2021/12/20 12:52:38;;;;;;;12.70;3.20;;;8.50;99.90;;;;;;5113878;28;20204;-81
2021/12/20 12:55:12;;;;;;;11.33;2.70;;;8.80;99.90;;;;;;5103521;28;20250;-80
2021/12/20 12:57:41;;;;;;;17.40;3.90;;;8.90;99.90;;;;;;5107061;28;20201;-82
2021/12/20 13:00:32;;;;;;;15.30;3.47;;;8.40;99.90;;;;;;5099687;28;20308;-83
2021/12/20 13:03:14;;;;;;;11.47;2.97;;;8.50;99.90;;;;;;5093205;28;20634;-81
2021/12/20 13:05:42;;;;;;;13.33;3.63;;;8.70;99.90;;;;;;5093492;28;20205;-83
2021/12/20 13:08:12;;;;;;;11.17;2.60;;;8.60;99.90;;;;;;5093387;28;20189;-81
2021/12/20 13:10:41;;;;;;;11.47;2.60;;;8.60;99.90;;;;;;5093970;28;20197;-83
2021/12/20 13:13:13;;;;;;;12.83;2.27;;;8.50;99.90;;;;;;5093449;28;20235;-80
2021/12/20 13:15:44;;;;;;;10.53;2.73;;;8.40;99.90;;;;;;5093489;28;20221;-83